createdAt,value
2023-06-17T00:01:07.006Z,43.05
2023-06-17T00:03:09.106Z,42.98
2023-06-17T00:05:11.351Z,42.52
2023-06-17T00:07:13.489Z,42.41
2023-06-17T00:09:15.649Z,42.23
2023-06-17T00:11:17.640Z,42.51
2023-06-17T00:13:21.046Z,43.22
2023-06-17T00:15:24.037Z,43.59
2023-06-17T00:17:26.042Z,43.63
2023-06-17T00:19:29.385Z,43.83
2023-06-17T00:21:31.744Z,43.93
2023-06-17T00:23:33.621Z,43.57
2023-06-17T00:25:35.685Z,43.75
2023-06-17T00:27:37.669Z,43.90
2023-06-17T00:29:39.599Z,43.84
2023-06-17T00:31:41.496Z,43.73
2023-06-17T00:33:43.451Z,43.92
2023-06-17T00:35:45.437Z,43.45
2023-06-17T00:37:47.807Z,43.35
2023-06-17T00:39:49.862Z,43.33
2023-06-17T00:41:51.973Z,43.15
2023-06-17T00:43:53.877Z,43.14
2023-06-17T00:45:56.249Z,43.18
2023-06-17T00:48:00.718Z,42.75
2023-06-17T00:50:04.201Z,42.72
2023-06-17T00:52:30.995Z,42.48
2023-06-17T00:54:33.406Z,43.08
2023-06-17T00:56:38.330Z,43.31
2023-06-17T00:58:42.409Z,43.27
2023-06-17T01:00:44.369Z,43.37
2023-06-17T01:02:47.715Z,43.59
2023-06-17T01:04:49.998Z,43.75
2023-06-17T01:06:57.199Z,43.56
2023-06-17T01:09:04.230Z,43.41
2023-06-17T01:11:12.181Z,43.29
2023-06-17T01:13:16.548Z,43.29
2023-06-17T01:15:18.863Z,43.01
2023-06-17T01:17:22.071Z,43.04
2023-06-17T01:19:25.983Z,42.51
2023-06-17T01:21:31.087Z,42.39
2023-06-17T01:23:36.387Z,42.48
2023-06-17T01:25:38.939Z,42.41
2023-06-17T01:27:42.656Z,42.37
2023-06-17T01:29:48.378Z,42.11
2023-06-17T01:31:51.841Z,42.15
2023-06-17T01:33:58.522Z,42.25
2023-06-17T01:36:06.421Z,42.37
2023-06-17T01:38:17.074Z,42.20
2023-06-17T01:40:22.025Z,42.12
2023-06-17T01:42:37.171Z,42.08
2023-06-17T01:44:41.270Z,42.11
2023-06-17T01:46:44.536Z,42.11
2023-06-17T01:48:46.939Z,42.29
2023-06-17T01:50:49.007Z,42.46
2023-06-17T01:52:51.223Z,42.30
2023-06-17T01:54:53.476Z,42.45
2023-06-17T01:56:55.646Z,42.29
2023-06-17T01:58:57.725Z,42.19
2023-06-17T02:00:59.836Z,42.20
2023-06-17T02:03:02.195Z,41.79
2023-06-17T02:05:04.785Z,41.71
2023-06-17T02:07:07.254Z,41.94
2023-06-17T02:09:10.254Z,41.54
2023-06-17T02:11:12.983Z,41.33
2023-06-17T02:13:15.142Z,41.72
2023-06-17T02:15:17.885Z,41.57
2023-06-17T02:17:20.117Z,41.43
2023-06-17T02:19:22.872Z,41.41
2023-06-17T02:21:25.105Z,41.51
2023-06-17T02:23:27.576Z,41.23
2023-06-17T02:25:29.764Z,41.10
2023-06-17T02:27:32.030Z,41.20
2023-06-17T02:29:34.202Z,40.95
2023-06-17T02:31:36.473Z,41.10
2023-06-17T02:33:38.594Z,41.00
2023-06-17T02:35:40.787Z,41.34
2023-06-17T02:37:44.712Z,41.17
2023-06-17T02:39:46.794Z,41.17
2023-06-17T02:41:49.264Z,40.87
2023-06-17T02:43:51.662Z,40.82
2023-06-17T02:45:53.734Z,40.85
2023-06-17T02:47:56.256Z,40.72
2023-06-17T02:49:58.397Z,40.72
2023-06-17T02:52:00.614Z,40.65
2023-06-17T02:54:03.351Z,40.85
2023-06-17T02:56:06.063Z,40.79
2023-06-17T02:58:08.297Z,40.87
2023-06-17T03:00:12.262Z,40.92
2023-06-17T03:02:14.300Z,41.12
2023-06-17T03:04:16.412Z,41.23
2023-06-17T03:06:20.473Z,40.85
2023-06-17T03:08:22.539Z,41.05
2023-06-17T03:10:24.800Z,41.04
2023-06-17T03:12:26.993Z,41.25
2023-06-17T03:14:30.554Z,41.03
2023-06-17T03:16:35.421Z,41.12
2023-06-17T03:18:37.701Z,41.22
2023-06-17T03:20:40.113Z,41.05
2023-06-17T03:22:42.612Z,41.03
2023-06-17T03:24:44.727Z,40.72
2023-06-17T03:26:47.007Z,41.04
2023-06-17T03:28:49.097Z,40.90
2023-06-17T03:30:51.198Z,40.40
2023-06-17T03:32:55.195Z,40.73
2023-06-17T03:34:58.417Z,40.67
2023-06-17T03:37:00.611Z,40.69
2023-06-17T03:39:02.689Z,40.76
2023-06-17T03:41:04.844Z,40.89
2023-06-17T03:43:07.079Z,40.35
2023-06-17T03:45:10.237Z,40.74
2023-06-17T03:47:12.287Z,41.18
2023-06-17T03:49:14.308Z,40.71
2023-06-17T03:51:18.255Z,41.03
2023-06-17T03:53:20.467Z,40.87
2023-06-17T03:55:23.885Z,40.90
2023-06-17T03:57:27.164Z,41.05
2023-06-17T03:59:29.370Z,40.58
2023-06-17T04:01:31.961Z,40.48
2023-06-17T04:03:35.930Z,40.61
2023-06-17T04:05:39.406Z,40.75
2023-06-17T04:07:41.472Z,41.18
2023-06-17T04:09:51.220Z,40.63
2023-06-17T04:12:04.932Z,40.95
2023-06-17T04:14:07.276Z,41.17
2023-06-17T04:16:09.316Z,41.17
2023-06-17T04:18:11.692Z,40.94
2023-06-17T04:20:13.938Z,41.17
2023-06-17T04:22:16.159Z,41.52
2023-06-17T04:24:18.540Z,41.06
2023-06-17T04:26:20.617Z,41.26
2023-06-17T04:28:24.490Z,41.40
2023-06-17T04:30:26.685Z,41.67
2023-06-17T04:32:28.789Z,41.37
2023-06-17T04:34:31.277Z,41.40
2023-06-17T04:36:33.939Z,41.64
2023-06-17T04:38:39.038Z,41.83
2023-06-17T04:40:41.134Z,41.98
2023-06-17T04:42:46.673Z,42.21
2023-06-17T04:44:50.428Z,42.29
2023-06-17T04:46:52.665Z,42.24
2023-06-17T04:48:55.339Z,42.08
2023-06-17T04:50:59.343Z,42.07
2023-06-17T04:53:05.470Z,42.17
2023-06-17T04:55:09.219Z,42.41
2023-06-17T04:57:11.669Z,42.41
2023-06-17T04:59:13.886Z,42.57
2023-06-17T05:01:16.124Z,42.60
2023-06-17T05:03:18.215Z,42.72
2023-06-17T05:05:20.424Z,42.65
2023-06-17T05:07:22.762Z,42.55
2023-06-17T05:09:24.930Z,42.46
2023-06-17T05:11:27.976Z,42.59
2023-06-17T05:13:30.227Z,42.46
2023-06-17T05:15:32.307Z,42.60
2023-06-17T05:17:34.432Z,42.26
2023-06-17T05:19:36.352Z,42.33
2023-06-17T05:21:38.402Z,42.31
2023-06-17T05:23:40.478Z,42.08
2023-06-17T05:25:42.484Z,42.32
2023-06-17T05:27:44.894Z,42.02
2023-06-17T05:29:46.903Z,41.88
2023-06-17T05:31:49.241Z,41.77
2023-06-17T05:33:51.236Z,42.07
2023-06-17T05:35:53.436Z,41.34
2023-06-17T05:37:55.538Z,41.31
2023-06-17T05:39:57.498Z,41.05
2023-06-17T05:41:59.587Z,41.22
2023-06-17T05:44:01.658Z,41.14
2023-06-17T05:46:03.759Z,41.21
2023-06-17T05:48:06.094Z,41.24
2023-06-17T05:50:08.474Z,41.06
2023-06-17T05:52:12.159Z,41.21
2023-06-17T05:54:14.191Z,40.75
2023-06-17T05:56:16.109Z,40.82
2023-06-17T05:58:18.365Z,40.83
2023-06-17T06:00:21.159Z,40.56
2023-06-17T06:02:23.986Z,40.67
2023-06-17T06:04:26.057Z,40.79
2023-06-17T06:06:28.074Z,40.73
2023-06-17T06:08:30.278Z,40.25
2023-06-17T06:10:32.362Z,40.16
2023-06-17T06:12:34.779Z,40.25
2023-06-17T06:14:36.805Z,40.34
2023-06-17T06:16:38.883Z,40.16
2023-06-17T06:18:41.153Z,40.43
2023-06-17T06:20:43.498Z,40.01
2023-06-17T06:22:46.103Z,40.02
2023-06-17T06:24:48.168Z,40.21
2023-06-17T06:26:50.197Z,40.19
2023-06-17T06:28:52.276Z,40.37
2023-06-17T06:30:54.283Z,40.25
2023-06-17T06:32:56.345Z,40.33
2023-06-17T06:34:58.558Z,40.34
2023-06-17T06:37:01.223Z,40.49
2023-06-17T06:39:03.319Z,40.21
2023-06-17T06:41:05.354Z,40.33
2023-06-17T06:43:07.513Z,40.24
2023-06-17T06:45:10.073Z,40.08
2023-06-17T06:47:12.275Z,39.75
2023-06-17T06:49:14.268Z,39.76
2023-06-17T06:51:16.407Z,39.99
2023-06-17T06:53:20.642Z,39.70
2023-06-17T06:55:22.608Z,39.69
2023-06-17T06:57:24.670Z,39.69
2023-06-17T06:59:26.846Z,39.43
2023-06-17T07:01:28.886Z,39.62
2023-06-17T07:03:31.028Z,39.72
2023-06-17T07:05:33.059Z,39.53
2023-06-17T07:07:35.056Z,39.58
2023-06-17T07:09:37.108Z,39.88
2023-06-17T07:11:39.369Z,39.42
2023-06-17T07:13:42.455Z,39.71
2023-06-17T07:15:46.616Z,39.40
2023-06-17T07:17:48.916Z,39.23
2023-06-17T07:19:50.889Z,39.06
2023-06-17T07:21:52.968Z,39.08
2023-06-17T07:23:54.979Z,39.29
2023-06-17T07:25:57.063Z,39.13
2023-06-17T07:28:01.140Z,39.02
2023-06-17T07:30:03.417Z,38.74
2023-06-17T07:32:05.690Z,38.97
2023-06-17T07:34:08.051Z,38.92
2023-06-17T07:36:10.165Z,38.82
2023-06-17T07:38:12.164Z,39.32
2023-06-17T07:40:14.853Z,39.36
2023-06-17T07:42:18.079Z,40.52
2023-06-17T07:44:20.238Z,39.80
2023-06-17T07:46:22.508Z,40.07
2023-06-17T07:48:24.647Z,40.21
2023-06-17T07:50:26.799Z,39.19
2023-06-17T07:52:28.889Z,40.10
2023-06-17T07:54:32.159Z,39.11
2023-06-17T07:56:34.150Z,38.60
2023-06-17T07:58:36.321Z,38.35
2023-06-17T08:00:38.449Z,38.52
2023-06-17T08:02:42.181Z,38.47
2023-06-17T08:04:44.457Z,38.02
2023-06-17T08:06:46.915Z,38.20
2023-06-17T08:08:49.145Z,38.50
2023-06-17T08:10:51.210Z,38.64
2023-06-17T08:12:53.334Z,38.60
2023-06-17T08:14:55.364Z,38.51
2023-06-17T08:16:57.430Z,38.64
2023-06-17T08:18:59.557Z,38.73
2023-06-17T08:21:01.962Z,38.69
2023-06-17T08:23:04.378Z,38.51
2023-06-17T08:25:07.291Z,38.52
2023-06-17T08:27:11.268Z,38.17
2023-06-17T08:29:14.757Z,38.47
2023-06-17T08:31:18.007Z,38.35
2023-06-17T08:33:20.273Z,38.28
2023-06-17T08:35:22.278Z,38.26
2023-06-17T08:37:24.399Z,37.72
2023-06-17T08:39:26.558Z,37.69
2023-06-17T08:41:29.514Z,37.98
2023-06-17T08:43:32.573Z,37.88
2023-06-17T08:45:36.490Z,37.68
2023-06-17T08:47:40.511Z,38.17
2023-06-17T08:49:45.625Z,38.18
2023-06-17T08:51:50.414Z,38.44
2023-06-17T08:53:58.607Z,38.30
2023-06-17T08:56:00.918Z,38.19
2023-06-17T08:58:03.966Z,38.02
2023-06-17T09:00:07.568Z,37.75
2023-06-17T09:02:13.370Z,37.73
2023-06-17T09:04:16.032Z,37.94
2023-06-17T09:06:21.676Z,37.77
2023-06-17T09:08:24.854Z,37.86
2023-06-17T09:10:27.299Z,38.07
2023-06-17T09:12:40.282Z,38.27
2023-06-17T09:14:46.523Z,38.15
2023-06-17T09:16:51.084Z,37.84
2023-06-17T09:18:57.442Z,37.93
2023-06-17T09:20:59.742Z,37.95
2023-06-17T09:23:02.343Z,37.84
2023-06-17T09:25:05.666Z,37.76
2023-06-17T09:27:08.962Z,38.15
2023-06-17T09:29:15.396Z,37.57
2023-06-17T09:31:19.922Z,37.62
2023-06-17T09:33:23.412Z,37.68
2023-06-17T09:35:25.848Z,37.55
2023-06-17T09:37:27.985Z,37.28
2023-06-17T09:39:32.945Z,37.49
2023-06-17T09:41:39.093Z,37.28
2023-06-17T09:43:42.969Z,37.32
2023-06-17T09:45:46.285Z,37.43
2023-06-17T09:47:56.751Z,37.66
2023-06-17T09:50:03.717Z,37.53
2023-06-17T09:52:10.636Z,37.18
2023-06-17T09:54:12.846Z,37.53
2023-06-17T09:56:16.102Z,37.04
2023-06-17T09:58:22.335Z,37.47
2023-06-17T10:00:25.955Z,37.17
2023-06-17T10:02:29.292Z,37.20
2023-06-17T10:04:31.732Z,37.12
2023-06-17T10:06:37.901Z,36.81
2023-06-17T10:08:44.656Z,36.94
2023-06-17T10:10:49.479Z,36.96
2023-06-17T10:12:55.735Z,36.80
2023-06-17T10:14:59.990Z,36.91
2023-06-17T10:17:04.510Z,36.63
2023-06-17T10:19:09.658Z,36.68
2023-06-17T10:21:13.856Z,36.62
2023-06-17T10:23:17.651Z,36.52
2023-06-17T10:25:19.818Z,36.53
2023-06-17T10:27:22.822Z,36.36
2023-06-17T10:29:27.156Z,36.14
2023-06-17T10:31:31.838Z,36.24
2023-06-17T10:33:34.129Z,35.92
2023-06-17T10:35:47.244Z,35.78
2023-06-17T10:37:49.976Z,35.76
2023-06-17T10:39:53.627Z,36.26
2023-06-17T10:41:58.914Z,36.04
2023-06-17T10:44:03.666Z,35.95
2023-06-17T10:46:05.991Z,35.93
2023-06-17T10:48:35.301Z,35.46
2023-06-17T10:50:37.581Z,35.41
2023-06-17T10:52:40.695Z,35.61
2023-06-17T10:54:47.412Z,35.28
2023-06-17T10:56:53.091Z,35.33
2023-06-17T10:58:55.723Z,35.09
2023-06-17T11:01:05.189Z,35.49
2023-06-17T11:03:10.375Z,35.24
2023-06-17T11:05:12.759Z,34.71
2023-06-17T11:07:16.698Z,34.73
2023-06-17T11:09:19.884Z,34.72
2023-06-17T11:11:22.343Z,34.45
2023-06-17T11:13:24.681Z,34.93
2023-06-17T11:15:27.160Z,34.75
2023-06-17T11:17:29.493Z,34.89
2023-06-17T11:19:32.334Z,34.80
2023-06-17T11:21:34.635Z,34.88
2023-06-17T11:23:39.835Z,34.45
2023-06-17T11:25:45.510Z,34.17
2023-06-17T11:27:48.458Z,32.75
2023-06-17T11:29:50.666Z,32.63
2023-06-17T11:31:53.209Z,32.60
2023-06-17T11:33:59.690Z,31.98
2023-06-17T11:36:03.704Z,32.39
2023-06-17T11:38:06.452Z,31.88
2023-06-17T11:40:12.296Z,31.74
2023-06-17T11:42:14.534Z,31.71
2023-06-17T11:44:16.746Z,32.29
2023-06-17T11:46:22.153Z,32.66
2023-06-17T11:48:34.974Z,33.32
2023-06-17T11:50:38.726Z,32.22
2023-06-17T11:52:41.013Z,32.22
2023-06-17T11:54:47.227Z,32.12
2023-06-17T11:56:51.136Z,32.08
2023-06-17T11:58:54.309Z,32.09
2023-06-17T12:01:00.833Z,31.73
2023-06-17T12:03:05.153Z,32.34
2023-06-17T12:05:07.794Z,31.66
2023-06-17T12:07:10.103Z,31.40
2023-06-17T12:09:15.357Z,30.56
2023-06-17T12:11:27.433Z,30.80
2023-06-17T12:13:39.224Z,30.73
2023-06-17T12:15:41.763Z,30.51
2023-06-17T12:17:46.758Z,30.10
2023-06-17T12:19:49.817Z,30.55
2023-06-17T12:21:52.642Z,30.33
2023-06-17T12:23:57.407Z,30.29
2023-06-17T12:25:59.522Z,29.68
2023-06-17T12:28:03.282Z,30.28
2023-06-17T12:30:08.525Z,30.16
2023-06-17T12:32:11.050Z,30.30
2023-06-17T12:34:13.228Z,29.40
2023-06-17T12:36:17.132Z,29.60
2023-06-17T12:38:19.797Z,28.79
2023-06-17T12:40:22.368Z,28.89
2023-06-17T12:42:24.869Z,29.03
2023-06-17T12:44:27.342Z,29.17
2023-06-17T12:46:30.316Z,28.99
2023-06-17T12:48:35.301Z,29.89
2023-06-17T12:50:37.661Z,29.66
2023-06-17T12:52:40.028Z,28.86
2023-06-17T12:54:46.055Z,29.03
2023-06-17T12:56:48.958Z,29.14
2023-06-17T12:58:51.133Z,29.16
2023-06-17T13:00:55.085Z,29.06
2023-06-17T13:02:57.445Z,28.76
2023-06-17T13:04:59.604Z,28.90
2023-06-17T13:07:02.692Z,28.92
2023-06-17T13:09:05.417Z,29.14
2023-06-17T13:11:07.877Z,29.91
2023-06-17T13:13:10.626Z,29.99
2023-06-17T13:15:12.839Z,29.95
2023-06-17T13:17:15.243Z,29.50
2023-06-17T13:19:18.956Z,29.76
2023-06-17T13:21:21.174Z,29.52
2023-06-17T13:23:23.551Z,29.71
2023-06-17T13:25:26.214Z,29.86
2023-06-17T13:27:30.310Z,29.81
2023-06-17T13:29:32.469Z,29.65
2023-06-17T13:31:35.443Z,30.25
2023-06-17T13:33:39.245Z,30.29
2023-06-17T13:35:41.416Z,30.59
2023-06-17T13:37:43.703Z,30.60
2023-06-17T13:39:46.222Z,30.59
2023-06-17T13:41:48.539Z,30.85
2023-06-17T13:43:50.727Z,30.45
2023-06-17T13:45:53.816Z,30.50
2023-06-17T13:47:56.153Z,30.04
2023-06-17T13:49:58.771Z,30.43
2023-06-17T13:52:03.773Z,30.22
2023-06-17T13:54:06.123Z,29.66
2023-06-17T13:56:08.243Z,29.85
2023-06-17T13:58:10.445Z,29.51
2023-06-17T14:00:13.536Z,29.88
2023-06-17T14:02:16.042Z,30.17
2023-06-17T14:04:18.354Z,30.14
2023-06-17T14:06:21.369Z,30.78
2023-06-17T14:08:24.218Z,30.28
2023-06-17T14:10:26.630Z,30.90
2023-06-17T14:12:28.925Z,30.27
2023-06-17T14:14:31.306Z,30.66
2023-06-17T14:16:34.336Z,31.08
2023-06-17T14:18:36.792Z,30.83
2023-06-17T14:20:39.179Z,31.02
2023-06-17T14:22:41.440Z,31.09
2023-06-17T14:24:43.828Z,31.79
2023-06-17T14:26:46.071Z,31.54
2023-06-17T14:28:48.317Z,31.86
2023-06-17T14:30:52.402Z,31.36
2023-06-17T14:32:54.618Z,30.62
2023-06-17T14:34:57.804Z,31.09
2023-06-17T14:37:00.027Z,30.48
2023-06-17T14:39:02.490Z,30.81
2023-06-17T14:41:04.862Z,31.01
2023-06-17T14:43:08.692Z,31.05
2023-06-17T14:45:12.283Z,31.37
2023-06-17T14:47:14.613Z,31.59
2023-06-17T14:49:16.850Z,31.21
2023-06-17T14:51:18.994Z,32.28
2023-06-17T14:53:29.512Z,32.27
2023-06-17T14:55:31.843Z,31.67
2023-06-17T14:57:34.231Z,31.85
2023-06-17T14:59:37.302Z,32.01
2023-06-17T15:01:40.838Z,32.37
2023-06-17T15:03:43.410Z,32.23
2023-06-17T15:05:45.922Z,32.36
2023-06-17T15:07:50.152Z,31.94
2023-06-17T15:09:52.386Z,31.61
2023-06-17T15:11:56.610Z,31.87
2023-06-17T15:13:58.708Z,31.83
2023-06-17T15:16:00.930Z,32.25
2023-06-17T15:18:03.225Z,31.90
2023-06-17T15:20:06.902Z,32.02
2023-06-17T15:22:09.268Z,32.08
2023-06-17T15:24:12.577Z,32.05
2023-06-17T15:26:14.687Z,31.99
2023-06-17T15:28:16.865Z,32.50
2023-06-17T15:30:21.983Z,32.61
2023-06-17T15:32:24.288Z,33.04
2023-06-17T15:34:26.484Z,32.76
2023-06-17T15:36:29.778Z,32.60
2023-06-17T15:38:32.054Z,33.53
2023-06-17T15:40:34.417Z,34.01
2023-06-17T15:42:37.438Z,33.89
2023-06-17T15:44:39.795Z,34.13
2023-06-17T15:46:42.527Z,34.63
2023-06-17T15:48:44.877Z,34.60
2023-06-17T15:50:47.523Z,34.42
2023-06-17T15:52:49.676Z,34.48
2023-06-17T15:54:54.324Z,34.42
2023-06-17T15:56:56.628Z,34.10
2023-06-17T15:59:01.043Z,35.06
2023-06-17T16:01:05.386Z,35.31
2023-06-17T16:03:09.057Z,35.27
2023-06-17T16:05:12.062Z,35.69
2023-06-17T16:07:15.640Z,36.29
2023-06-17T16:09:18.234Z,36.16
2023-06-17T16:11:20.398Z,36.26
2023-06-17T16:13:23.922Z,36.24
2023-06-17T16:15:26.038Z,36.06
2023-06-17T16:17:28.253Z,36.50
2023-06-17T16:19:33.208Z,36.49
2023-06-17T16:21:36.850Z,36.43
2023-06-17T16:23:39.098Z,36.58
2023-06-17T16:25:54.907Z,37.20
2023-06-17T16:27:58.217Z,36.70
2023-06-17T16:30:00.422Z,36.95
2023-06-17T16:32:02.719Z,37.06
2023-06-17T16:34:05.446Z,37.35
2023-06-17T16:36:07.697Z,37.12
2023-06-17T16:38:09.996Z,37.26
2023-06-17T16:40:12.559Z,37.02
2023-06-17T16:42:14.996Z,36.78
2023-06-17T16:44:17.537Z,36.64
2023-06-17T16:46:19.890Z,36.74
2023-06-17T16:48:22.295Z,36.74
2023-06-17T16:50:24.795Z,37.43
2023-06-17T16:52:27.756Z,37.02
2023-06-17T16:54:30.059Z,37.72
2023-06-17T16:56:32.280Z,37.53
2023-06-17T16:58:34.780Z,37.95
2023-06-17T17:00:37.041Z,38.09
2023-06-17T17:02:39.204Z,37.64
2023-06-17T17:04:41.454Z,37.48
2023-06-17T17:06:44.211Z,37.10
2023-06-17T17:08:49.993Z,36.89
2023-06-17T17:10:52.649Z,37.34
2023-06-17T17:12:54.965Z,37.55
2023-06-17T17:14:57.191Z,37.25
2023-06-17T17:17:00.286Z,37.75
2023-06-17T17:19:02.617Z,37.53
2023-06-17T17:21:04.819Z,37.42
2023-06-17T17:23:07.881Z,36.91
2023-06-17T17:25:11.429Z,36.93
2023-06-17T17:27:13.669Z,36.71
2023-06-17T17:29:15.916Z,36.54
2023-06-17T17:31:18.030Z,36.38
2023-06-17T17:33:23.676Z,36.25
2023-06-17T17:35:26.760Z,35.98
2023-06-17T17:37:29.157Z,36.15
2023-06-17T17:39:31.426Z,35.78
2023-06-17T17:41:33.541Z,36.17
2023-06-17T17:43:35.922Z,36.32
2023-06-17T17:45:38.221Z,35.97
2023-06-17T17:47:40.490Z,36.07
2023-06-17T17:49:42.776Z,36.04
2023-06-17T17:51:45.098Z,35.86
2023-06-17T17:53:47.384Z,36.54
2023-06-17T17:55:49.825Z,36.17
2023-06-17T17:57:52.402Z,35.92
2023-06-17T17:59:54.602Z,36.12
2023-06-17T18:01:56.726Z,36.31
2023-06-17T18:03:59.117Z,36.47
2023-06-17T18:06:01.336Z,36.31
2023-06-17T18:08:03.599Z,36.34
2023-06-17T18:10:06.729Z,36.22
2023-06-17T18:12:09.004Z,36.36
2023-06-17T18:14:11.477Z,36.67
2023-06-17T18:16:13.877Z,36.70
2023-06-17T18:18:16.219Z,36.91
2023-06-17T18:20:18.627Z,36.95
2023-06-17T18:22:21.029Z,38.33
2023-06-17T18:24:23.179Z,38.20
2023-06-17T18:26:26.017Z,39.27
2023-06-17T18:28:28.275Z,39.97
2023-06-17T18:30:30.846Z,39.94
2023-06-17T18:32:33.118Z,40.01
2023-06-17T18:34:35.384Z,40.09
2023-06-17T18:36:37.831Z,39.90
2023-06-17T18:38:40.235Z,40.13
2023-06-17T18:40:42.678Z,40.74
2023-06-17T18:42:45.048Z,41.03
2023-06-17T18:44:47.395Z,40.69
2023-06-17T18:46:49.726Z,41.41
2023-06-17T18:48:53.480Z,41.49
2023-06-17T18:50:56.041Z,41.58
2023-06-17T18:52:58.183Z,41.80
2023-06-17T18:55:00.494Z,42.42
2023-06-17T18:57:02.688Z,42.53
2023-06-17T18:59:05.326Z,42.86
2023-06-17T19:01:07.697Z,42.94
2023-06-17T19:03:10.086Z,42.75
2023-06-17T19:05:12.436Z,43.35
2023-06-17T19:07:15.121Z,43.71
2023-06-17T19:09:17.562Z,43.34
2023-06-17T19:11:20.326Z,43.33
2023-06-17T19:13:22.977Z,43.31
2023-06-17T19:15:26.587Z,43.34
2023-06-17T19:17:28.743Z,43.50
2023-06-17T19:19:30.988Z,43.22
2023-06-17T19:21:33.332Z,43.67
2023-06-17T19:23:35.685Z,43.61
2023-06-17T19:25:38.359Z,43.70
2023-06-17T19:27:40.689Z,44.05
2023-06-17T19:29:44.228Z,43.72
2023-06-17T19:31:46.441Z,43.62
2023-06-17T19:33:48.730Z,43.95
2023-06-17T19:35:51.186Z,44.20
2023-06-17T19:37:53.488Z,43.92
2023-06-17T19:39:55.970Z,44.20
2023-06-17T19:41:58.152Z,44.36
2023-06-17T19:44:00.365Z,44.76
2023-06-17T19:46:03.872Z,45.21
2023-06-17T19:48:06.424Z,45.45
2023-06-17T19:50:09.125Z,45.35
2023-06-17T19:52:11.275Z,45.81
2023-06-17T19:54:14.136Z,46.08
2023-06-17T19:56:17.058Z,46.00
2023-06-17T19:58:19.780Z,46.46
2023-06-17T20:00:22.288Z,46.85
2023-06-17T20:02:24.892Z,47.30
2023-06-17T20:04:27.239Z,46.68
2023-06-17T20:06:30.334Z,46.83
2023-06-17T20:08:32.570Z,47.44
2023-06-17T20:10:34.971Z,47.13
2023-06-17T20:12:37.334Z,46.96
2023-06-17T20:14:39.578Z,46.71
2023-06-17T20:16:42.212Z,46.81
2023-06-17T20:18:44.436Z,46.79
2023-06-17T20:20:46.710Z,47.30
2023-06-17T20:22:49.004Z,47.01
2023-06-17T20:24:51.451Z,47.48
2023-06-17T20:26:53.656Z,47.54
2023-06-17T20:28:56.128Z,48.00
2023-06-17T20:30:58.523Z,48.23
2023-06-17T20:33:00.734Z,47.87
2023-06-17T20:35:03.775Z,47.51
2023-06-17T20:37:06.952Z,47.62
2023-06-17T20:39:10.907Z,47.49
2023-06-17T20:41:13.141Z,47.82
2023-06-17T20:43:16.100Z,47.87
2023-06-17T20:45:18.678Z,48.06
2023-06-17T20:47:20.991Z,47.95
2023-06-17T20:49:23.674Z,47.92
2023-06-17T20:51:26.669Z,47.80
2023-06-17T20:53:29.010Z,47.60
2023-06-17T20:55:32.083Z,47.61
2023-06-17T20:57:34.487Z,47.46
2023-06-17T20:59:36.781Z,47.35
2023-06-17T21:01:39.118Z,46.86
2023-06-17T21:03:41.744Z,46.96
2023-06-17T21:05:43.951Z,47.23
2023-06-17T21:07:46.515Z,47.18
2023-06-17T21:09:49.410Z,47.16
2023-06-17T21:11:52.702Z,47.12
2023-06-17T21:13:54.793Z,47.50
2023-06-17T21:15:57.064Z,47.35
2023-06-17T21:17:59.334Z,47.55
2023-06-17T21:20:01.673Z,48.13
2023-06-17T21:22:05.166Z,48.37
2023-06-17T21:24:07.387Z,48.48
2023-06-17T21:26:09.758Z,48.74
2023-06-17T21:28:12.148Z,48.73
2023-06-17T21:30:14.771Z,50.11
2023-06-17T21:32:16.911Z,50.57
2023-06-17T21:34:19.227Z,51.03
2023-06-17T21:36:21.843Z,51.33
2023-06-17T21:38:24.704Z,52.08
2023-06-17T21:40:26.922Z,52.42
2023-06-17T21:42:29.095Z,53.23
2023-06-17T21:44:34.071Z,52.49
2023-06-17T21:46:37.791Z,52.99
2023-06-17T21:48:43.260Z,52.99
2023-06-17T21:50:45.827Z,53.49
2023-06-17T21:52:47.952Z,53.39
2023-06-17T21:54:50.261Z,53.29
2023-06-17T21:56:52.867Z,53.26
2023-06-17T21:58:55.216Z,53.87
2023-06-17T22:00:57.918Z,53.52
2023-06-17T22:03:00.300Z,53.52
2023-06-17T22:05:03.581Z,52.96
2023-06-17T22:07:06.537Z,53.67
2023-06-17T22:09:09.091Z,53.15
2023-06-17T22:11:13.499Z,52.85
2023-06-17T22:13:16.296Z,52.80
2023-06-17T22:15:18.703Z,52.50
2023-06-17T22:17:21.194Z,52.83
2023-06-17T22:19:23.433Z,52.60
2023-06-17T22:21:25.690Z,52.63
2023-06-17T22:23:27.858Z,53.01
2023-06-17T22:25:30.069Z,52.46
2023-06-17T22:27:32.503Z,52.38
2023-06-17T22:29:34.804Z,52.26
2023-06-17T22:31:37.364Z,51.98
2023-06-17T22:33:40.248Z,52.07
2023-06-17T22:35:42.812Z,52.68
2023-06-17T22:37:45.266Z,52.57
2023-06-17T22:39:47.689Z,52.58
2023-06-17T22:41:50.089Z,52.09
2023-06-17T22:43:52.855Z,52.03
2023-06-17T22:45:55.336Z,51.97
2023-06-17T22:47:57.748Z,52.02
2023-06-17T22:50:00.018Z,51.90
2023-06-17T22:52:02.257Z,51.46
2023-06-17T22:54:04.672Z,51.69
2023-06-17T22:56:07.087Z,51.79
2023-06-17T22:58:09.487Z,51.72
2023-06-17T23:00:12.697Z,51.51
2023-06-17T23:02:15.068Z,50.75
2023-06-17T23:04:17.438Z,50.40
2023-06-17T23:06:19.561Z,50.63
2023-06-17T23:08:21.855Z,50.69
2023-06-17T23:10:24.505Z,50.30
2023-06-17T23:12:26.993Z,50.70
2023-06-17T23:14:29.141Z,50.64
2023-06-17T23:16:31.303Z,50.29
2023-06-17T23:18:33.646Z,50.48
2023-06-17T23:20:37.282Z,50.24
2023-06-17T23:22:39.533Z,50.70
2023-06-17T23:24:42.967Z,50.36
2023-06-17T23:26:46.162Z,50.05
2023-06-17T23:28:50.131Z,50.10
2023-06-17T23:30:53.026Z,50.10
2023-06-17T23:32:55.294Z,50.26
2023-06-17T23:34:57.803Z,50.00
2023-06-17T23:37:00.636Z,50.01
2023-06-17T23:39:02.940Z,50.52
2023-06-17T23:41:05.104Z,50.12
2023-06-17T23:43:07.415Z,50.45
2023-06-17T23:45:13.170Z,50.57
2023-06-17T23:47:18.623Z,50.69
2023-06-17T23:49:20.893Z,50.74
2023-06-17T23:51:23.621Z,50.84
2023-06-17T23:53:26.974Z,50.95
2023-06-17T23:55:29.101Z,50.90
2023-06-17T23:57:31.295Z,50.87
2023-06-17T23:59:34.134Z,50.92
